Terminal Aerodrome Forecast
Issued by NWS

Current Version | Previous Version | Text Only | Print | Product List | Glossary On
Versions: 1 2 3 4 5 6 7 8 9 10 11 12 13 14 15 16 17 18
230
FTUS41 KAKQ 281257 AAA
TAFPHF
TAF AMD
KPHF 281257Z 2813/2912 VRB03KT P6SM VCSH SCT030 BKN100
      TEMPO 2813/2815 4SM SHRA BR OVC015
     FM281500 11006KT P6SM OVC040
     FM281800 12006KT 5SM -SHRA BR BKN040=

USA.gov is the U.S. government's official web portal to all federal, state and local government web resources and services.